Time;durP1;ratioP1;P1;durP2;ratioP2;P2;SDS_P1;SDS_P2;PMS_P1;PMS_P2;Temp;Humidity;BMP_temperature;BMP_pressure;BME280_temperature;BME280_humidity;BME280_pressure;Samples;Min_cycle;Max_cycle;Signal;HPM_P1;HPM_P2
2023/09/07 00:00:28;;;;;;;6.17;3.80;;;16.50;98.00;;;;;;5012812;28;20459;-66
2023/09/07 00:02:55;;;;;;;6.60;3.80;;;16.60;98.00;;;;;;5013065;28;20471;-66
2023/09/07 00:05:22;;;;;;;10.97;4.23;;;16.60;98.00;;;;;;5012939;28;20471;-68
2023/09/07 00:07:49;;;;;;;6.20;4.20;;;16.50;98.00;;;;;;5012857;28;20467;-67
2023/09/07 00:10:17;;;;;;;6.60;4.00;;;16.50;98.00;;;;;;5012948;28;20997;-68
2023/09/07 00:12:47;;;;;;;8.87;4.00;;;16.50;98.00;;;;;;5012493;28;20467;-66
2023/09/07 00:15:14;;;;;;;6.27;3.40;;;16.40;98.00;;;;;;5012393;28;20514;-65
2023/09/07 00:17:43;;;;;;;6.63;3.80;;;16.30;98.00;;;;;;5012449;28;20455;-67
2023/09/07 00:20:14;;;;;;;10.17;3.87;;;16.20;98.00;;;;;;5012745;28;20544;-66
2023/09/07 00:22:41;;;;;;;6.70;3.90;;;16.10;98.00;;;;;;5012486;28;20464;-66
2023/09/07 00:25:09;;;;;;;9.40;3.67;;;16.20;98.00;;;;;;5012612;28;20455;-67
2023/09/07 00:27:36;;;;;;;6.13;3.83;;;16.20;98.00;;;;;;5012282;28;20506;-68
2023/09/07 00:30:05;;;;;;;7.00;4.07;;;16.20;98.00;;;;;;5012448;28;20455;-67
2023/09/07 00:32:33;;;;;;;8.57;3.70;;;16.30;98.00;;;;;;5012429;28;20494;-67
2023/09/07 00:35:02;;;;;;;7.50;3.83;;;16.30;98.00;;;;;;5012449;28;20458;-68
2023/09/07 00:37:29;;;;;;;6.83;3.90;;;16.40;98.00;;;;;;5011019;28;20456;-68
2023/09/07 00:39:56;;;;;;;7.60;3.70;;;16.10;98.00;;;;;;5012321;28;20463;-66
2023/09/07 00:42:23;;;;;;;6.77;3.60;;;16.20;98.00;;;;;;5012357;28;20459;-66
2023/09/07 00:44:50;;;;;;;7.17;4.20;;;16.20;98.00;;;;;;5012082;28;20491;-68
2023/09/07 00:47:18;;;;;;;9.23;3.47;;;16.10;98.00;;;;;;5012204;28;20456;-66
2023/09/07 00:49:46;;;;;;;5.87;3.80;;;16.00;98.00;;;;;;5011939;28;20456;-65
2023/09/07 00:52:14;;;;;;;10.00;4.00;;;16.00;98.00;;;;;;5010991;28;20862;-68
2023/09/07 00:54:42;;;;;;;6.40;3.80;;;16.00;98.00;;;;;;5012180;28;20965;-66
2023/09/07 00:57:10;;;;;;;5.37;3.40;;;16.00;98.00;;;;;;5012003;28;20483;-66
2023/09/07 00:59:37;;;;;;;9.63;3.97;;;16.00;98.00;;;;;;5011722;28;20972;-67
2023/09/07 01:02:05;;;;;;;7.27;3.90;;;15.90;98.00;;;;;;5011879;28;20484;-66
2023/09/07 01:04:33;;;;;;;6.43;3.70;;;15.90;98.00;;;;;;5011908;28;20836;-66
2023/09/07 01:07:10;;;;;;;5.90;3.70;;;15.80;98.00;;;;;;5011946;28;20721;-67
2023/09/07 01:09:41;;;;;;;7.93;4.17;;;15.80;98.00;;;;;;5011794;28;20463;-66
2023/09/07 01:12:10;;;;;;;8.70;4.27;;;15.70;98.00;;;;;;5011839;28;20455;-67
2023/09/07 01:14:37;;;;;;;7.80;3.97;;;15.70;98.00;;;;;;5011533;28;20834;-66
2023/09/07 01:17:05;;;;;;;5.70;3.63;;;15.70;98.00;;;;;;5011580;28;20506;-66
2023/09/07 01:19:32;;;;;;;7.47;4.10;;;15.70;98.00;;;;;;5011694;28;20459;-66
2023/09/07 01:22:01;;;;;;;6.20;3.70;;;15.70;98.00;;;;;;5011819;28;20458;-66
2023/09/07 01:24:30;;;;;;;5.20;3.50;;;15.60;98.00;;;;;;5011841;28;20459;-66
2023/09/07 01:26:57;;;;;;;6.57;3.87;;;15.60;98.00;;;;;;5011529;28;20498;-67
2023/09/07 01:29:29;;;;;;;7.10;4.03;;;15.50;98.00;;;;;;5011768;28;20463;-67
2023/09/07 01:31:56;;;;;;;6.13;3.83;;;15.50;98.00;;;;;;5011821;28;20451;-68
2023/09/07 01:34:25;;;;;;;8.20;4.00;;;15.40;98.00;;;;;;5011673;28;20454;-66
2023/09/07 01:36:52;;;;;;;6.97;3.80;;;15.30;98.00;;;;;;5011032;28;20483;-66
2023/09/07 01:39:23;;;;;;;6.10;3.73;;;15.30;98.00;;;;;;5011653;28;20451;-66
2023/09/07 01:41:51;;;;;;;10.53;3.77;;;15.40;98.00;;;;;;5011220;28;20456;-66
2023/09/07 01:44:18;;;;;;;5.90;3.63;;;15.50;98.00;;;;;;5011261;28;20959;-66
2023/09/07 01:46:46;;;;;;;8.83;3.80;;;15.50;98.00;;;;;;5011389;28;20456;-65
2023/09/07 01:49:13;;;;;;;8.90;3.93;;;15.50;98.00;;;;;;5011357;28;20467;-66
2023/09/07 01:51:40;;;;;;;6.73;3.70;;;15.40;98.00;;;;;;5011278;28;20949;-66
2023/09/07 01:54:09;;;;;;;6.20;3.43;;;15.50;98.00;;;;;;5009835;28;20792;-66
2023/09/07 01:56:39;;;;;;;7.27;3.83;;;15.40;98.00;;;;;;5011284;28;20483;-66
2023/09/07 01:59:06;;;;;;;7.20;4.13;;;15.30;98.00;;;;;;5011164;28;20501;-66
2023/09/07 02:01:37;;;;;;;8.03;4.07;;;15.40;98.00;;;;;;5011182;28;20460;-66
2023/09/07 02:04:04;;;;;;;6.87;4.10;;;15.20;98.00;;;;;;5010104;28;20838;-67
2023/09/07 02:06:32;;;;;;;7.40;4.17;;;15.10;98.00;;;;;;5011086;28;20463;-66
2023/09/07 02:08:59;;;;;;;5.63;3.50;;;15.10;98.00;;;;;;5011195;28;20452;-66
2023/09/07 02:11:26;;;;;;;10.57;3.90;;;15.10;98.00;;;;;;5011049;28;20514;-66
2023/09/07 02:13:55;;;;;;;6.73;3.67;;;15.10;98.00;;;;;;5010887;28;20467;-66
2023/09/07 02:16:23;;;;;;;7.10;3.93;;;15.30;98.00;;;;;;5010468;28;20483;-66
2023/09/07 02:18:51;;;;;;;7.80;3.70;;;15.10;98.00;;;;;;5014897;28;20976;-66
2023/09/07 02:21:18;;;;;;;6.23;3.80;;;15.10;98.00;;;;;;5015090;28;20466;-66
2023/09/07 02:23:45;;;;;;;6.00;3.53;;;15.30;98.00;;;;;;5014902;28;20463;-66
2023/09/07 02:26:12;;;;;;;12.53;3.63;;;15.30;98.00;;;;;;5014978;28;20831;-67
2023/09/07 02:28:40;;;;;;;7.93;4.03;;;15.20;98.00;;;;;;5014699;28;20447;-66
2023/09/07 02:31:09;;;;;;;6.27;3.53;;;15.20;98.00;;;;;;5014738;28;20525;-66
2023/09/07 02:33:36;;;;;;;6.80;4.00;;;15.10;98.00;;;;;;5014427;28;21011;-66
2023/09/07 02:36:03;;;;;;;7.27;3.83;;;15.10;98.00;;;;;;5014450;28;20479;-67
2023/09/07 02:38:31;;;;;;;6.47;3.80;;;15.00;98.00;;;;;;5014571;28;20482;-65
2023/09/07 02:40:59;;;;;;;6.87;3.80;;;14.90;98.00;;;;;;5014676;28;20490;-66
2023/09/07 02:43:26;;;;;;;6.80;3.80;;;14.90;98.00;;;;;;5014563;28;20448;-66
2023/09/07 02:45:53;;;;;;;6.37;3.60;;;14.80;98.00;;;;;;5014742;28;20455;-67
2023/09/07 02:48:22;;;;;;;11.33;3.97;;;14.80;98.00;;;;;;5014552;28;20808;-67
2023/09/07 02:50:58;;;;;;;7.40;3.97;;;14.90;98.00;;;;;;5014460;28;20482;-65
2023/09/07 02:53:26;;;;;;;6.53;4.30;;;14.80;98.00;;;;;;5014491;28;20465;-66
2023/09/07 02:55:53;;;;;;;5.13;3.40;;;14.90;98.00;;;;;;5014441;28;20463;-65
2023/09/07 02:58:20;;;;;;;7.20;3.63;;;14.80;98.00;;;;;;5014585;28;20448;-66
2023/09/07 03:00:47;;;;;;;7.50;3.80;;;14.80;98.00;;;;;;5014219;28;20452;-67
2023/09/07 03:03:15;;;;;;;6.10;3.70;;;14.80;98.00;;;;;;5014059;28;20459;-67
2023/09/07 03:05:44;;;;;;;13.23;6.77;;;15.00;98.00;;;;;;5013993;28;20472;-66
2023/09/07 03:08:12;;;;;;;9.13;5.27;;;14.80;98.00;;;;;;5014169;28;20967;-67
2023/09/07 03:10:40;;;;;;;8.87;4.00;;;14.80;98.00;;;;;;5014246;28;20479;-66
2023/09/07 03:13:08;;;;;;;6.40;3.53;;;14.80;98.00;;;;;;5013964;28;20542;-66
2023/09/07 03:15:35;;;;;;;7.10;3.60;;;14.60;98.00;;;;;;5013759;28;20466;-67
2023/09/07 03:18:02;;;;;;;7.67;4.10;;;14.50;98.00;;;;;;5013669;28;21064;-68
2023/09/07 03:20:29;;;;;;;7.03;3.93;;;14.40;98.00;;;;;;5013803;28;20451;-66
2023/09/07 03:22:58;;;;;;;5.57;3.77;;;14.40;98.00;;;;;;5013683;28;20466;-66
2023/09/07 03:25:25;;;;;;;5.17;3.30;;;14.30;98.00;;;;;;5013940;28;20465;-67
2023/09/07 03:27:52;;;;;;;7.00;3.67;;;14.50;98.00;;;;;;5012394;28;20510;-66
2023/09/07 03:30:20;;;;;;;10.83;3.90;;;14.60;98.00;;;;;;5013287;28;20460;-67
2023/09/07 03:32:47;;;;;;;7.60;4.17;;;14.50;98.00;;;;;;5012288;28;20490;-66
2023/09/07 03:35:15;;;;;;;7.83;4.07;;;14.60;98.00;;;;;;5013438;28;20460;-66
2023/09/07 03:37:43;;;;;;;6.83;3.93;;;14.50;98.00;;;;;;5011927;28;20555;-68
2023/09/07 03:40:12;;;;;;;10.17;4.30;;;14.60;98.00;;;;;;5013272;28;20447;-68
2023/09/07 03:42:40;;;;;;;6.80;3.70;;;14.50;98.00;;;;;;5013160;28;20456;-67
2023/09/07 03:45:11;;;;;;;8.37;4.10;;;14.50;98.00;;;;;;5013254;28;20495;-66
2023/09/07 03:47:38;;;;;;;7.60;4.13;;;14.40;98.00;;;;;;5013494;28;20462;-66
2023/09/07 03:50:06;;;;;;;7.60;3.80;;;14.30;98.00;;;;;;5011863;28;20452;-66
2023/09/07 03:52:33;;;;;;;8.07;4.67;;;14.20;98.00;;;;;;5013011;28;20458;-67
2023/09/07 03:55:01;;;;;;;7.97;3.90;;;14.30;98.00;;;;;;5012918;28;20451;-66
2023/09/07 03:57:30;;;;;;;7.53;3.70;;;14.20;98.00;;;;;;5012984;28;20487;-66
2023/09/07 03:59:58;;;;;;;8.20;4.07;;;14.20;98.00;;;;;;5012833;28;20938;-68
2023/09/07 04:02:25;;;;;;;6.93;3.93;;;14.20;98.00;;;;;;5011679;28;20452;-68
2023/09/07 04:04:53;;;;;;;6.53;3.90;;;14.20;98.00;;;;;;5012882;28;20875;-66
2023/09/07 04:07:21;;;;;;;8.30;3.93;;;14.40;98.00;;;;;;5012727;28;20463;-65
2023/09/07 04:09:48;;;;;;;6.87;3.90;;;14.40;98.00;;;;;;5011365;28;20459;-66
2023/09/07 04:12:15;;;;;;;6.00;3.53;;;14.30;98.00;;;;;;5012751;28;20518;-66
2023/09/07 04:14:44;;;;;;;6.60;4.17;;;14.40;98.00;;;;;;5012416;28;20468;-66
2023/09/07 04:17:12;;;;;;;7.90;3.87;;;14.40;98.00;;;;;;5012561;28;20566;-66
2023/09/07 04:19:39;;;;;;;6.93;4.03;;;14.30;98.00;;;;;;5012758;28;20480;-65
2023/09/07 04:22:06;;;;;;;7.87;4.03;;;14.30;98.00;;;;;;5012515;28;20452;-66
2023/09/07 04:24:33;;;;;;;5.40;3.90;;;14.20;98.00;;;;;;5012412;28;20960;-65
2023/09/07 04:27:00;;;;;;;10.63;3.97;;;14.10;98.00;;;;;;5012370;28;20495;-66
2023/09/07 04:29:28;;;;;;;7.97;4.43;;;14.00;98.00;;;;;;5012292;28;20547;-66
2023/09/07 04:31:56;;;;;;;6.63;3.70;;;14.00;98.00;;;;;;5012272;28;20459;-66
2023/09/07 04:34:24;;;;;;;10.90;4.20;;;14.00;98.00;;;;;;5012292;28;20455;-66
2023/09/07 04:36:51;;;;;;;7.63;4.33;;;14.10;98.00;;;;;;5012045;28;20558;-65
2023/09/07 04:39:19;;;;;;;8.00;4.00;;;14.20;98.00;;;;;;5011763;28;20455;-65
2023/09/07 04:41:46;;;;;;;6.20;3.67;;;14.10;98.00;;;;;;5012453;28;20809;-65
2023/09/07 04:44:13;;;;;;;6.83;3.80;;;14.10;98.00;;;;;;5012291;28;20463;-66
2023/09/07 04:46:40;;;;;;;8.97;3.80;;;14.10;98.00;;;;;;5012185;28;20527;-66
2023/09/07 04:49:08;;;;;;;6.67;3.90;;;14.10;98.00;;;;;;5012247;28;20455;-66
2023/09/07 04:51:35;;;;;;;8.53;4.13;;;14.00;98.00;;;;;;5012246;28;20517;-67
2023/09/07 04:54:03;;;;;;;9.07;4.53;;;13.80;98.00;;;;;;5012265;28;20452;-67
2023/09/07 04:56:39;;;;;;;7.90;4.17;;;13.80;98.00;;;;;;5012068;28;20523;-66
2023/09/07 04:59:06;;;;;;;7.03;4.03;;;13.90;98.00;;;;;;5011998;28;20473;-66
2023/09/07 05:01:36;;;;;;;6.00;3.60;;;13.80;98.00;;;;;;5012009;28;20455;-66
2023/09/07 05:04:04;;;;;;;9.77;4.37;;;13.80;98.00;;;;;;5010740;28;20498;-66
2023/09/07 05:06:36;;;;;;;8.07;4.23;;;13.80;98.00;;;;;;5011834;28;20539;-66
2023/09/07 05:09:03;;;;;;;6.10;3.80;;;13.90;98.00;;;;;;5011840;28;20490;-66
2023/09/07 05:11:30;;;;;;;8.07;4.33;;;13.90;98.00;;;;;;5011712;28;20474;-68
2023/09/07 05:13:57;;;;;;;6.50;3.97;;;13.80;98.00;;;;;;5011553;28;20956;-67
2023/09/07 05:16:25;;;;;;;8.27;4.37;;;13.80;98.00;;;;;;5011564;28;20447;-66
2023/09/07 05:18:55;;;;;;;6.73;3.80;;;13.90;98.00;;;;;;5011683;28;20486;-66
2023/09/07 05:21:22;;;;;;;7.57;3.80;;;14.00;98.00;;;;;;5011779;28;20452;-67
2023/09/07 05:23:51;;;;;;;7.90;4.40;;;14.20;98.00;;;;;;5011499;28;20846;-67
2023/09/07 05:26:23;;;;;;;9.43;4.33;;;14.10;98.00;;;;;;5011492;28;20450;-67
2023/09/07 05:28:51;;;;;;;6.73;3.93;;;14.10;98.00;;;;;;5011483;28;20447;-69
2023/09/07 05:31:18;;;;;;;7.67;4.27;;;14.00;98.00;;;;;;5011387;28;20540;-67
2023/09/07 05:33:45;;;;;;;8.43;4.00;;;14.10;98.00;;;;;;5011508;28;20828;-66
2023/09/07 05:36:12;;;;;;;9.97;4.27;;;14.00;98.00;;;;;;5011466;28;20506;-67
2023/09/07 05:38:39;;;;;;;6.90;3.77;;;14.00;98.00;;;;;;5011184;28;20487;-68
2023/09/07 05:41:08;;;;;;;9.40;4.37;;;14.00;98.00;;;;;;5011410;28;20945;-66
2023/09/07 05:43:35;;;;;;;7.00;4.27;;;14.00;98.00;;;;;;5011237;28;20452;-67
2023/09/07 05:46:06;;;;;;;9.27;4.47;;;14.00;98.00;;;;;;5011438;28;20467;-67
2023/09/07 05:48:33;;;;;;;7.73;4.17;;;14.00;98.00;;;;;;5010187;28;20450;-66
2023/09/07 05:51:00;;;;;;;8.83;4.57;;;14.10;98.00;;;;;;5011512;28;20486;-67
2023/09/07 05:53:27;;;;;;;9.97;4.43;;;14.20;98.00;;;;;;5015350;28;20450;-67
2023/09/07 05:55:54;;;;;;;6.80;4.20;;;14.00;98.00;;;;;;5014821;28;20451;-66
2023/09/07 05:58:23;;;;;;;8.23;4.73;;;14.10;98.00;;;;;;5015216;28;20557;-67
2023/09/07 06:00:50;;;;;;;8.03;4.20;;;14.30;98.00;;;;;;5015259;28;20450;-67
2023/09/07 06:03:17;;;;;;;10.10;4.30;;;14.40;98.00;;;;;;5015234;28;20530;-67
2023/09/07 06:05:44;;;;;;;8.07;4.43;;;14.40;98.00;;;;;;5015239;28;20988;-67
2023/09/07 06:08:11;;;;;;;10.67;4.87;;;14.30;98.00;;;;;;5015146;28;20977;-67
2023/09/07 06:10:39;;;;;;;9.60;4.33;;;14.30;98.00;;;;;;5015106;28;20474;-68
2023/09/07 06:13:06;;;;;;;10.63;4.73;;;14.30;98.00;;;;;;5014843;28;20502;-64
2023/09/07 06:15:35;;;;;;;9.03;4.70;;;14.50;98.00;;;;;;5015129;28;20973;-64
2023/09/07 06:18:03;;;;;;;8.90;4.37;;;14.60;98.00;;;;;;5014965;28;20483;-64
2023/09/07 06:20:30;;;;;;;7.60;4.60;;;14.60;98.00;;;;;;5014921;28;20953;-64
2023/09/07 06:22:57;;;;;;;8.03;4.40;;;14.50;98.00;;;;;;5014887;28;20514;-64
2023/09/07 06:25:25;;;;;;;7.73;4.77;;;14.60;98.00;;;;;;5014914;28;20518;-64
2023/09/07 06:27:52;;;;;;;8.93;4.67;;;14.60;98.00;;;;;;5014910;28;20737;-64
2023/09/07 06:30:20;;;;;;;9.40;4.73;;;14.70;98.00;;;;;;5014880;28;20463;-64
2023/09/07 06:32:50;;;;;;;9.30;4.77;;;14.80;98.00;;;;;;5013730;28;20551;-64
2023/09/07 06:35:18;;;;;;;8.93;4.43;;;14.90;98.00;;;;;;5014994;28;20983;-65
2023/09/07 06:37:45;;;;;;;9.10;5.13;;;15.00;98.00;;;;;;5014652;28;21035;-64
2023/09/07 06:40:13;;;;;;;7.83;4.70;;;15.10;98.00;;;;;;5014741;28;20823;-64
2023/09/07 06:42:40;;;;;;;10.77;5.07;;;15.20;98.00;;;;;;5014552;28;20443;-64
2023/09/07 06:45:09;;;;;;;7.73;4.53;;;15.40;98.00;;;;;;5014477;28;20842;-64
2023/09/07 06:47:36;;;;;;;8.07;4.70;;;15.50;98.00;;;;;;5014463;28;20455;-64
2023/09/07 06:50:06;;;;;;;10.50;4.63;;;15.60;98.00;;;;;;5014354;28;20455;-64
2023/09/07 06:52:33;;;;;;;8.60;4.40;;;15.80;98.00;;;;;;5014241;28;20454;-64
2023/09/07 06:55:01;;;;;;;9.60;4.77;;;15.90;98.00;;;;;;5014342;28;20945;-65
2023/09/07 06:57:28;;;;;;;9.60;4.80;;;16.00;98.00;;;;;;5014259;28;20510;-64
2023/09/07 06:59:56;;;;;;;11.13;4.40;;;16.10;98.00;;;;;;5014225;28;20447;-64
2023/09/07 07:02:23;;;;;;;8.47;4.73;;;16.30;98.00;;;;;;5014118;28;20467;-64
2023/09/07 07:04:51;;;;;;;10.53;5.20;;;16.30;98.00;;;;;;5014008;28;20478;-64
2023/09/07 07:07:19;;;;;;;21.23;5.10;;;16.50;98.00;;;;;;5012862;28;20454;-65
2023/09/07 07:09:47;;;;;;;11.23;5.50;;;16.60;98.00;;;;;;5013889;28;20846;-64
2023/09/07 07:12:15;;;;;;;9.13;4.97;;;16.70;98.00;;;;;;5013933;28;20456;-64
2023/09/07 07:14:42;;;;;;;10.93;4.87;;;16.80;98.00;;;;;;5013691;28;20467;-65
2023/09/07 07:17:09;;;;;;;7.20;4.80;;;16.90;98.00;;;;;;5013558;28;20459;-65
2023/09/07 07:19:36;;;;;;;8.13;4.57;;;17.10;98.00;;;;;;5013774;28;20510;-64
2023/09/07 07:22:03;;;;;;;10.40;5.10;;;17.20;98.00;;;;;;5013947;28;20817;-64
2023/09/07 07:24:32;;;;;;;15.60;4.60;;;17.40;98.00;;;;;;5013595;28;20530;-65
2023/09/07 07:26:59;;;;;;;10.03;5.23;;;17.50;98.00;;;;;;5013822;28;21034;-64
2023/09/07 07:29:26;;;;;;;10.47;5.10;;;17.70;98.00;;;;;;5013500;28;20444;-64
2023/09/07 07:31:53;;;;;;;10.80;5.50;;;17.80;98.00;;;;;;5013796;28;20444;-65
2023/09/07 07:34:20;;;;;;;11.17;5.73;;;18.00;98.00;;;;;;5012722;28;20761;-65
2023/09/07 07:36:47;;;;;;;13.80;5.20;;;18.10;98.00;;;;;;5013060;28;20527;-65
2023/09/07 07:39:15;;;;;;;10.63;5.20;;;18.30;98.00;;;;;;5012811;28;20490;-65
2023/09/07 07:41:45;;;;;;;8.90;5.50;;;18.40;98.00;;;;;;5013408;28;20536;-65
2023/09/07 07:44:12;;;;;;;11.27;5.70;;;18.60;98.00;;;;;;5013149;28;20872;-65
2023/09/07 07:46:40;;;;;;;9.97;5.40;;;18.80;98.00;;;;;;5013262;28;20946;-65
2023/09/07 07:49:07;;;;;;;9.33;5.53;;;18.90;98.00;;;;;;5013262;28;20455;-65
2023/09/07 07:51:34;;;;;;;11.17;5.57;;;19.00;98.00;;;;;;5012948;28;20487;-65
2023/09/07 07:54:02;;;;;;;11.07;5.43;;;19.20;98.00;;;;;;5013202;28;20869;-65
2023/09/07 07:56:29;;;;;;;8.73;5.30;;;19.40;98.00;;;;;;5011671;28;20463;-65
2023/09/07 07:58:58;;;;;;;8.70;5.43;;;19.70;98.00;;;;;;4995266;28;20482;-65
2023/09/07 08:01:26;;;;;;;11.10;6.10;;;19.80;98.00;;;;;;5012967;28;20455;-65
2023/09/07 08:03:53;;;;;;;11.33;5.87;;;19.90;98.00;;;;;;5012680;28;20447;-65
2023/09/07 08:06:21;;;;;;;8.30;5.17;;;20.10;98.00;;;;;;5012848;28;20480;-65
2023/09/07 08:08:48;;;;;;;10.80;5.67;;;20.30;98.00;;;;;;5011314;28;20868;-65
2023/09/07 08:11:15;;;;;;;9.80;5.93;;;20.40;98.00;;;;;;5011890;28;20466;-63
2023/09/07 08:13:45;;;;;;;9.30;5.63;;;20.50;98.00;;;;;;5012670;28;20521;-65
2023/09/07 08:16:14;;;;;;;11.77;5.73;;;20.70;98.00;;;;;;5013244;28;20452;-65
2023/09/07 08:18:41;;;;;;;11.10;5.60;;;20.80;98.00;;;;;;5012255;28;21058;-65
2023/09/07 08:21:08;;;;;;;10.20;5.63;;;21.00;98.00;;;;;;5012903;28;20454;-65
2023/09/07 08:23:36;;;;;;;10.53;5.77;;;21.20;98.00;;;;;;5012758;28;20460;-65
2023/09/07 08:26:05;;;;;;;11.30;6.20;;;21.40;98.00;;;;;;5011491;28;20487;-65
2023/09/07 08:28:32;;;;;;;11.27;5.40;;;21.40;98.00;;;;;;5012749;28;20949;-65
2023/09/07 08:31:01;;;;;;;9.70;5.70;;;21.60;98.00;;;;;;5012717;28;20450;-65
2023/09/07 08:33:30;;;;;;;10.53;5.70;;;21.80;98.00;;;;;;5012295;28;20448;-65
2023/09/07 08:36:00;;;;;;;9.90;5.73;;;21.90;98.00;;;;;;5012487;28;21032;-65
2023/09/07 08:38:27;;;;;;;9.53;5.93;;;22.10;98.00;;;;;;5012131;28;20516;-65
2023/09/07 08:40:56;;;;;;;12.80;5.53;;;22.20;98.00;;;;;;5011288;28;20499;-66
2023/09/07 08:43:23;;;;;;;9.70;6.17;;;22.30;98.00;;;;;;5012249;28;20494;-66
2023/09/07 08:46:11;;;;;;;10.57;5.77;;;22.40;98.00;;;;;;5012295;28;20463;-66
2023/09/07 08:48:41;;;;;;;9.10;5.60;;;22.60;98.00;;;;;;5012122;28;20463;-66
2023/09/07 08:51:11;;;;;;;9.17;5.20;;;22.70;98.00;;;;;;5012296;28;20455;-66
2023/09/07 08:53:39;;;;;;;9.17;5.30;;;22.80;98.00;;;;;;5012087;28;20521;-66
2023/09/07 08:56:09;;;;;;;9.67;5.60;;;22.90;98.00;;;;;;5012240;28;20448;-66
2023/09/07 08:58:37;;;;;;;10.13;5.70;;;23.10;98.00;;;;;;5011147;28;20575;-66
2023/09/07 09:01:08;;;;;;;11.33;5.93;;;23.30;98.00;;;;;;5012162;28;20474;-66
2023/09/07 09:03:35;;;;;;;10.80;5.90;;;23.40;98.00;;;;;;5011829;28;20488;-65
2023/09/07 09:06:04;;;;;;;9.23;5.83;;;23.50;98.00;;;;;;5011961;28;20452;-65
2023/09/07 09:08:42;;;;;;;8.03;5.03;;;23.60;98.00;;;;;;5011857;28;20790;-65
2023/09/07 09:11:09;;;;;;;10.40;6.23;;;23.70;98.00;;;;;;5012072;28;20455;-65
2023/09/07 09:13:36;;;;;;;11.30;5.87;;;23.90;98.00;;;;;;5011604;28;20463;-66
2023/09/07 09:16:03;;;;;;;11.00;6.00;;;24.00;98.00;;;;;;5011720;28;20455;-65
2023/09/07 09:18:30;;;;;;;14.43;5.53;;;24.10;98.00;;;;;;5011679;28;20645;-64
2023/09/07 09:20:58;;;;;;;9.23;5.87;;;24.20;98.00;;;;;;5011871;28;20455;-65
2023/09/07 09:23:35;;;;;;;10.60;6.33;;;24.40;98.00;;;;;;5011778;28;20464;-64
2023/09/07 09:26:03;;;;;;;8.93;5.77;;;24.50;98.00;;;;;;5010922;28;20459;-64
2023/09/07 09:28:31;;;;;;;10.37;5.90;;;24.60;98.00;;;;;;5011519;28;20530;-64
2023/09/07 09:30:59;;;;;;;11.67;6.17;;;24.70;98.00;;;;;;5011754;28;20795;-64
2023/09/07 09:33:27;;;;;;;10.17;5.83;;;24.90;98.00;;;;;;5011487;28;20460;-63
2023/09/07 09:35:56;;;;;;;10.00;5.90;;;25.00;98.00;;;;;;5011492;28;20475;-63
2023/09/07 09:38:23;;;;;;;9.37;5.40;;;25.10;98.00;;;;;;5011496;28;20483;-63
2023/09/07 09:40:52;;;;;;;8.93;5.73;;;25.30;98.00;;;;;;5011469;28;20458;-62
2023/09/07 09:43:21;;;;;;;9.60;6.20;;;25.40;98.00;;;;;;5010271;28;20452;-63
2023/09/07 09:45:50;;;;;;;10.13;6.10;;;25.50;98.00;;;;;;5011318;28;20739;-63
2023/09/07 09:48:19;;;;;;;13.17;6.00;;;25.70;98.00;;;;;;5011301;28;20456;-62
2023/09/07 09:50:48;;;;;;;11.17;6.10;;;25.80;98.00;;;;;;5011856;28;20807;-61
2023/09/07 09:53:18;;;;;;;9.77;6.10;;;26.00;98.00;;;;;;5012233;28;20446;-62
2023/09/07 09:55:46;;;;;;;9.63;6.07;;;26.10;98.00;;;;;;5012384;28;20459;-63
2023/09/07 09:58:16;;;;;;;10.00;5.80;;;26.30;98.00;;;;;;5012323;28;21039;-61
2023/09/07 10:00:45;;;;;;;9.80;5.37;;;26.40;98.00;;;;;;5011970;28;20455;-63
2023/09/07 10:03:16;;;;;;;10.80;5.97;;;26.50;98.00;;;;;;5012232;28;20945;-62
2023/09/07 10:05:45;;;;;;;11.93;6.00;;;26.60;98.00;;;;;;5011769;28;20826;-63
2023/09/07 10:08:14;;;;;;;9.03;5.80;;;26.80;98.00;;;;;;5011800;28;20954;-63
2023/09/07 10:10:43;;;;;;;8.67;5.50;;;26.90;98.00;;;;;;5010777;28;20463;-63
2023/09/07 10:13:10;;;;;;;9.03;6.00;;;27.00;98.00;;;;;;5011769;28;20448;-63
2023/09/07 10:15:39;;;;;;;12.50;6.63;;;27.10;98.00;;;;;;5011606;28;20463;-63
2023/09/07 10:18:07;;;;;;;9.13;5.50;;;27.30;98.00;;;;;;5011430;28;20483;-63
2023/09/07 10:20:53;;;;;;;8.90;5.80;;;27.40;98.00;;;;;;5011816;28;20968;-63
2023/09/07 10:23:21;;;;;;;10.17;5.80;;;27.60;98.00;;;;;;5011740;28;20455;-63
2023/09/07 10:25:52;;;;;;;9.40;5.87;;;27.70;98.00;;;;;;5011556;28;20514;-63
2023/09/07 10:28:21;;;;;;;10.03;5.97;;;27.70;98.00;;;;;;5011254;28;20822;-63
2023/09/07 10:31:01;;;;;;;10.27;5.80;;;27.80;98.00;;;;;;5011512;28;20458;-63
2023/09/07 10:33:28;;;;;;;8.30;5.57;;;28.00;98.00;;;;;;5011438;28;20447;-62
2023/09/07 10:35:56;;;;;;;9.30;6.00;;;28.10;98.00;;;;;;5011526;28;20435;-63
2023/09/07 10:38:24;;;;;;;8.77;5.40;;;28.20;98.00;;;;;;5013721;28;20494;-63
2023/09/07 10:40:57;;;;;;;8.50;5.47;;;28.40;98.00;;;;;;5015037;28;20509;-63
2023/09/07 10:43:24;;;;;;;8.47;5.60;;;28.40;98.00;;;;;;5015087;28;20876;-62
2023/09/07 10:45:57;;;;;;;10.17;6.10;;;28.50;98.00;;;;;;5013696;28;20540;-63
2023/09/07 10:48:26;;;;;;;9.77;5.90;;;28.70;98.00;;;;;;5015047;28;20455;-63
2023/09/07 10:50:53;;;;;;;8.97;5.40;;;28.80;98.00;;;;;;5014898;28;21096;-62
2023/09/07 10:53:31;;;;;;;10.53;6.20;;;28.90;98.00;;;;;;5015004;28;20463;-63
2023/09/07 10:56:00;;;;;;;9.10;5.70;;;29.10;98.00;;;;;;5014809;28;20477;-63
2023/09/07 10:58:28;;;;;;;9.63;5.80;;;29.20;97.60;;;;;;5014939;28;20463;-62
2023/09/07 11:00:56;;;;;;;10.13;5.93;;;29.30;98.00;;;;;;5014925;28;20487;-63
2023/09/07 11:03:25;;;;;;;9.10;6.07;;;29.50;96.40;;;;;;5014914;28;20447;-63
2023/09/07 11:05:53;;;;;;;9.73;5.77;;;29.60;96.70;;;;;;5013635;28;20479;-63
2023/09/07 11:08:20;;;;;;;8.53;5.47;;;29.80;95.50;;;;;;5014810;28;20452;-62
2023/09/07 11:10:47;;;;;;;8.60;5.60;;;30.00;94.70;;;;;;5014024;28;20455;-63
2023/09/07 11:13:16;;;;;;;7.50;5.30;;;30.10;94.30;;;;;;5013444;28;20456;-63
2023/09/07 11:15:43;;;;;;;9.90;6.07;;;30.40;95.00;;;;;;5014961;28;20448;-63
2023/09/07 11:18:10;;;;;;;8.57;5.57;;;30.60;94.90;;;;;;5014670;28;20954;-63
2023/09/07 11:20:39;;;;;;;10.70;5.73;;;30.90;93.20;;;;;;5014507;28;20491;-63
2023/09/07 11:23:07;;;;;;;8.10;5.60;;;31.00;93.20;;;;;;5013305;28;21037;-62
2023/09/07 11:25:41;;;;;;;8.33;5.40;;;31.20;92.80;;;;;;5014684;28;20542;-62
2023/09/07 11:28:11;;;;;;;8.43;5.40;;;31.50;92.30;;;;;;5014875;28;20982;-63
2023/09/07 11:30:38;;;;;;;8.53;5.87;;;31.70;91.40;;;;;;5014247;28;20456;-63
2023/09/07 11:33:07;;;;;;;9.60;5.80;;;31.70;91.30;;;;;;5014547;28;20455;-62
2023/09/07 11:35:35;;;;;;;8.03;5.60;;;31.90;89.40;;;;;;5014489;28;20459;-63
2023/09/07 11:38:10;;;;;;;8.97;5.30;;;32.00;90.60;;;;;;5014498;28;20478;-62
2023/09/07 11:40:37;;;;;;;8.90;5.77;;;32.20;91.00;;;;;;5012918;28;20588;-63
2023/09/07 11:43:05;;;;;;;8.17;5.23;;;32.30;87.70;;;;;;5014503;28;20451;-63
2023/09/07 11:45:32;;;;;;;11.50;5.27;;;32.40;89.80;;;;;;5012929;28;20478;-63
2023/09/07 11:47:59;;;;;;;7.80;5.07;;;32.60;88.80;;;;;;5013937;28;20490;-63
2023/09/07 11:50:29;;;;;;;8.37;5.50;;;32.80;88.60;;;;;;5013085;28;20459;-63
2023/09/07 11:52:57;;;;;;;8.33;5.53;;;33.00;87.50;;;;;;5013877;28;20492;-63
2023/09/07 11:55:25;;;;;;;9.80;5.50;;;33.20;87.60;;;;;;5013689;28;20483;-62
2023/09/07 11:57:53;;;;;;;8.70;5.70;;;33.30;87.70;;;;;;5012523;28;20531;-63
2023/09/07 12:00:22;;;;;;;8.90;5.77;;;33.40;86.10;;;;;;5012398;28;20479;-62
2023/09/07 12:02:49;;;;;;;10.10;7.80;;;33.50;86.60;;;;;;5013742;28;20559;-63
2023/09/07 12:05:24;;;;;;;8.03;5.80;;;33.40;86.10;;;;;;5013472;28;20448;-64
2023/09/07 12:07:52;;;;;;;8.07;5.23;;;33.60;86.10;;;;;;5013498;28;20483;-66
2023/09/07 12:10:19;;;;;;;8.97;5.87;;;33.80;86.30;;;;;;5013498;28;20451;-65
2023/09/07 12:12:49;;;;;;;11.10;6.20;;;33.70;86.20;;;;;;5012797;28;20456;-65
2023/09/07 12:15:16;;;;;;;8.60;5.60;;;33.70;84.70;;;;;;5011090;28;21035;-65
2023/09/07 12:17:43;;;;;;;10.17;5.50;;;33.80;85.20;;;;;;5013301;28;20451;-65
2023/09/07 12:20:12;;;;;;;7.97;5.37;;;33.60;84.80;;;;;;5013303;28;20852;-65
2023/09/07 12:22:40;;;;;;;7.27;5.23;;;33.40;84.10;;;;;;5013306;28;20938;-62
2023/09/07 12:25:10;;;;;;;8.70;5.63;;;33.60;85.50;;;;;;5013406;28;20513;-62
2023/09/07 12:27:38;;;;;;;8.73;6.00;;;33.70;84.30;;;;;;5013109;28;20538;-63
2023/09/07 12:30:12;;;;;;;8.73;5.57;;;34.00;84.10;;;;;;5396196;22;20577;-63
2023/09/07 12:32:39;;;;;;;18.20;6.10;;;34.00;85.80;;;;;;5032142;28;20490;-63
2023/09/07 12:35:08;;;;;;;7.20;5.23;;;34.10;83.70;;;;;;5032245;28;20451;-63
2023/09/07 12:37:36;;;;;;;15.73;5.60;;;34.10;83.90;;;;;;5032156;28;20540;-63
2023/09/07 12:40:11;;;;;;;7.50;5.57;;;34.30;84.80;;;;;;5030322;28;20517;-63
2023/09/07 12:42:39;;;;;;;9.47;6.27;;;34.40;83.00;;;;;;5031132;28;20461;-63
2023/09/07 12:45:09;;;;;;;7.90;5.67;;;34.60;84.10;;;;;;5032113;28;20461;-63
2023/09/07 12:47:37;;;;;;;9.67;5.80;;;34.70;82.40;;;;;;5031940;28;20753;-63
2023/09/07 12:50:06;;;;;;;9.20;5.73;;;34.70;83.90;;;;;;5031979;28;20541;-63